Time;durP1;ratioP1;P1;durP2;ratioP2;P2;SDS_P1;SDS_P2;PMS_P1;PMS_P2;Temp;Humidity;BMP_temperature;BMP_pressure;BME280_temperature;BME280_humidity;BME280_pressure;Samples;Min_cycle;Max_cycle;Signal;HPM_P1;HPM_P2
2023/10/27 00:01:03;;;;;;;10.88;2.60;;;8.70;94.70;;;;;;6146379;29;20062;-75
2023/10/27 00:04:05;;;;;;;8.95;2.50;;;8.80;94.70;;;;;;6124326;29;20051;-74
2023/10/27 00:07:07;;;;;;;9.02;2.78;;;8.90;94.80;;;;;;6170589;28;20505;-75
2023/10/27 00:10:09;;;;;;;10.52;2.63;;;9.00;94.90;;;;;;6147790;28;20105;-75
2023/10/27 00:13:10;;;;;;;9.10;2.58;;;9.10;94.90;;;;;;6163854;28;20074;-77
2023/10/27 00:16:12;;;;;;;8.77;2.13;;;9.30;95.00;;;;;;6146341;29;20059;-75
2023/10/27 00:19:14;;;;;;;9.82;2.47;;;9.30;95.00;;;;;;6169249;28;20367;-75
2023/10/27 00:22:15;;;;;;;7.15;2.30;;;9.40;95.10;;;;;;6147320;28;20059;-75
2023/10/27 00:25:17;;;;;;;9.27;2.33;;;9.50;95.10;;;;;;6167903;28;20761;-75
2023/10/27 00:28:19;;;;;;;8.40;2.60;;;9.50;95.10;;;;;;6146208;28;20059;-75
2023/10/27 00:31:20;;;;;;;6.85;2.40;;;9.50;95.10;;;;;;6171168;28;20050;-74
2023/10/27 00:34:22;;;;;;;9.32;1.73;;;9.50;95.10;;;;;;6146166;28;20059;-75
2023/10/27 00:37:23;;;;;;;9.00;2.50;;;9.40;95.00;;;;;;6170506;28;20054;-75
2023/10/27 00:40:25;;;;;;;7.55;2.00;;;9.30;94.90;;;;;;6146973;28;20069;-75
2023/10/27 00:43:27;;;;;;;5.57;1.90;;;9.20;94.80;;;;;;6161501;28;20222;-75
2023/10/27 00:46:28;;;;;;;5.95;2.22;;;9.10;94.70;;;;;;6145187;29;20066;-75
2023/10/27 00:49:30;;;;;;;6.38;1.70;;;9.00;94.70;;;;;;6170267;28;20161;-74
2023/10/27 00:52:32;;;;;;;9.20;2.40;;;8.90;94.60;;;;;;6147003;28;20511;-75
2023/10/27 00:55:33;;;;;;;8.73;2.08;;;8.80;94.60;;;;;;6169505;28;20054;-74
2023/10/27 00:58:35;;;;;;;8.15;2.53;;;8.70;94.40;;;;;;6153019;28;20135;-75
2023/10/27 01:01:37;;;;;;;9.30;2.45;;;8.70;94.40;;;;;;6147066;28;20055;-74
2023/10/27 01:04:38;;;;;;;8.18;2.00;;;8.60;94.50;;;;;;6170124;28;20050;-74
2023/10/27 01:07:40;;;;;;;9.75;2.17;;;8.60;94.50;;;;;;6147073;28;20051;-75
2023/10/27 01:10:42;;;;;;;9.40;2.15;;;8.50;94.50;;;;;;6171013;28;20058;-74
2023/10/27 01:13:43;;;;;;;8.25;2.53;;;8.50;94.40;;;;;;6157403;28;20419;-75
2023/10/27 01:16:45;;;;;;;10.90;2.17;;;8.50;94.50;;;;;;6151624;28;20066;-74
2023/10/27 01:19:46;;;;;;;10.25;2.40;;;8.50;94.40;;;;;;6174409;28;20046;-74
2023/10/27 01:22:49;;;;;;;11.20;2.20;;;8.40;94.40;;;;;;6151403;28;20190;-74
2023/10/27 01:25:50;;;;;;;10.25;2.53;;;8.30;94.40;;;;;;6167985;28;20058;-75
2023/10/27 01:28:52;;;;;;;10.88;2.67;;;8.30;94.50;;;;;;6154837;28;20055;-74
2023/10/27 01:31:53;;;;;;;9.65;2.55;;;8.20;94.40;;;;;;6151490;28;20129;-75
2023/10/27 01:34:55;;;;;;;7.43;2.25;;;8.30;94.50;;;;;;6174439;28;20055;-75
2023/10/27 01:37:57;;;;;;;6.95;2.42;;;8.20;94.40;;;;;;6151443;28;20055;-75
2023/10/27 01:40:58;;;;;;;11.23;3.03;;;8.20;94.50;;;;;;6174184;28;20066;-75
2023/10/27 01:44:00;;;;;;;11.05;2.97;;;8.20;94.60;;;;;;6155269;28;20051;-75
2023/10/27 01:47:01;;;;;;;9.50;2.40;;;8.20;94.60;;;;;;6150722;28;20051;-75
2023/10/27 01:50:03;;;;;;;9.15;2.25;;;8.20;94.60;;;;;;6174019;28;20062;-75
2023/10/27 01:53:04;;;;;;;11.63;2.75;;;8.10;94.50;;;;;;6151088;28;20055;-75
2023/10/27 01:56:06;;;;;;;11.45;2.90;;;8.00;94.50;;;;;;6173936;28;20054;-75
2023/10/27 01:59:07;;;;;;;7.25;2.42;;;8.00;94.50;;;;;;6152613;28;20062;-75
2023/10/27 02:02:13;;;;;;;7.72;2.78;;;8.00;94.50;;;;;;6173376;28;20066;-75
2023/10/27 02:05:15;;;;;;;13.52;3.05;;;8.00;94.50;;;;;;6126398;29;20063;-75
2023/10/27 02:08:17;;;;;;;8.40;2.70;;;7.90;94.50;;;;;;6150088;28;20078;-74
2023/10/27 02:11:18;;;;;;;7.88;2.50;;;7.90;94.50;;;;;;6173918;28;20078;-75
2023/10/27 02:14:20;;;;;;;11.68;2.97;;;7.90;94.50;;;;;;6164034;28;20711;-74
2023/10/27 02:17:21;;;;;;;12.25;2.60;;;7.90;94.50;;;;;;6151142;28;20427;-75
2023/10/27 02:20:23;;;;;;;7.93;2.47;;;7.90;94.50;;;;;;6172281;28;20498;-74
2023/10/27 02:23:25;;;;;;;12.18;3.30;;;7.90;94.50;;;;;;6149148;28;20436;-76
2023/10/27 02:26:27;;;;;;;9.25;2.42;;;7.80;94.50;;;;;;6173629;28;20058;-75
2023/10/27 02:29:29;;;;;;;13.20;3.05;;;7.80;94.40;;;;;;6160298;28;20549;-75
2023/10/27 02:32:30;;;;;;;8.30;2.40;;;7.80;94.40;;;;;;6150066;28;20066;-75
2023/10/27 02:35:32;;;;;;;8.77;2.58;;;7.70;94.40;;;;;;6173024;28;20100;-74
2023/10/27 02:38:33;;;;;;;5.57;2.50;;;7.70;94.40;;;;;;6150384;28;20158;-75
2023/10/27 02:41:36;;;;;;;8.73;2.20;;;7.70;94.40;;;;;;6172777;28;20055;-75
2023/10/27 02:44:37;;;;;;;14.23;2.67;;;7.70;94.40;;;;;;6151076;28;20054;-75
2023/10/27 02:47:39;;;;;;;11.20;2.40;;;7.60;94.40;;;;;;6173272;28;20770;-75
2023/10/27 02:50:40;;;;;;;10.82;2.40;;;7.70;94.50;;;;;;6149257;28;20153;-75
2023/10/27 02:53:42;;;;;;;5.68;2.30;;;7.70;94.50;;;;;;6172498;28;20058;-75
2023/10/27 02:56:44;;;;;;;9.30;2.60;;;7.60;94.50;;;;;;6149497;28;20051;-75
2023/10/27 02:59:45;;;;;;;12.50;2.53;;;7.60;94.50;;;;;;6167610;28;20042;-75
2023/10/27 03:02:47;;;;;;;12.73;2.53;;;7.70;94.50;;;;;;6149398;28;20066;-75
2023/10/27 03:05:49;;;;;;;8.95;2.42;;;7.70;94.50;;;;;;6167137;28;20063;-75
2023/10/27 03:08:51;;;;;;;9.00;2.15;;;7.60;94.50;;;;;;6163846;28;20066;-75
2023/10/27 03:11:52;;;;;;;8.07;2.05;;;7.60;94.50;;;;;;6187125;28;20406;-75
2023/10/27 03:14:54;;;;;;;12.23;2.25;;;7.60;94.50;;;;;;6145926;28;20122;-75
2023/10/27 03:17:55;;;;;;;13.25;2.72;;;7.60;94.50;;;;;;6171967;28;20395;-75
2023/10/27 03:20:57;;;;;;;5.32;1.90;;;7.60;94.50;;;;;;6148758;28;20051;-75
2023/10/27 03:23:58;;;;;;;10.50;2.30;;;7.60;94.50;;;;;;6170447;28;20641;-75
2023/10/27 03:27:00;;;;;;;11.98;2.42;;;7.60;94.50;;;;;;6148843;28;20055;-75
2023/10/27 03:30:03;;;;;;;7.15;2.00;;;7.50;94.50;;;;;;6167196;28;20046;-75
2023/10/27 03:33:04;;;;;;;9.73;2.30;;;7.60;94.50;;;;;;6148129;28;20063;-75
2023/10/27 03:36:07;;;;;;;10.00;2.05;;;7.60;94.50;;;;;;6171285;28;20058;-75
2023/10/27 03:39:10;;;;;;;9.63;1.90;;;7.70;94.60;;;;;;6148539;28;20145;-75
2023/10/27 03:42:11;;;;;;;7.85;1.98;;;7.60;94.50;;;;;;6171817;28;20054;-75
2023/10/27 03:45:13;;;;;;;5.95;1.83;;;7.60;94.60;;;;;;6154525;28;20522;-75
2023/10/27 03:48:15;;;;;;;9.50;2.10;;;7.60;94.50;;;;;;6148253;28;20066;-76
2023/10/27 03:51:16;;;;;;;8.07;2.25;;;7.70;94.60;;;;;;6171146;28;20514;-75
2023/10/27 03:54:18;;;;;;;10.85;2.15;;;7.70;94.60;;;;;;6148114;28;20055;-75
2023/10/27 03:57:19;;;;;;;6.70;1.75;;;7.70;94.50;;;;;;6171157;28;20422;-75
2023/10/27 04:00:22;;;;;;;8.85;2.05;;;7.80;94.60;;;;;;6156234;28;20054;-75
2023/10/27 04:03:24;;;;;;;9.13;2.00;;;7.80;94.60;;;;;;6147748;28;20059;-75
2023/10/27 04:06:26;;;;;;;7.38;2.08;;;7.90;94.70;;;;;;6167329;28;20055;-75
2023/10/27 04:09:27;;;;;;;4.07;1.55;;;8.00;94.70;;;;;;6148029;28;20051;-75
2023/10/27 04:12:29;;;;;;;6.57;1.88;;;8.10;94.80;;;;;;6171010;28;20477;-75
2023/10/27 04:15:31;;;;;;;8.05;1.90;;;8.10;94.80;;;;;;6144499;28;20566;-75
2023/10/27 04:18:33;;;;;;;6.50;1.73;;;8.20;94.80;;;;;;6170574;28;20061;-75
2023/10/27 04:21:34;;;;;;;5.68;1.80;;;8.30;94.90;;;;;;6147485;28;20396;-75
2023/10/27 04:24:36;;;;;;;8.13;1.90;;;8.30;94.90;;;;;;6170582;28;20062;-75
2023/10/27 04:27:38;;;;;;;6.05;1.77;;;8.40;94.90;;;;;;6147415;28;20058;-76
2023/10/27 04:30:39;;;;;;;7.65;1.83;;;8.30;94.80;;;;;;6169493;28;20149;-75
2023/10/27 04:33:43;;;;;;;5.80;1.58;;;8.30;94.80;;;;;;6123135;29;20055;-75
2023/10/27 04:36:45;;;;;;;8.30;1.90;;;8.30;94.80;;;;;;6170283;28;20058;-76
2023/10/27 04:39:46;;;;;;;7.10;1.40;;;8.20;94.80;;;;;;6145921;28;20051;-76
2023/10/27 04:42:48;;;;;;;13.02;2.50;;;8.20;94.80;;;;;;6168340;28;20499;-76
2023/10/27 04:45:50;;;;;;;13.95;2.20;;;8.30;94.80;;;;;;6160030;28;20050;-76
2023/10/27 04:48:52;;;;;;;8.23;1.88;;;8.20;94.70;;;;;;6146827;28;20078;-76
2023/10/27 04:51:53;;;;;;;9.10;2.20;;;8.10;94.60;;;;;;6169910;28;20138;-76
2023/10/27 04:54:55;;;;;;;6.78;1.63;;;8.20;94.70;;;;;;6147091;28;20423;-76
2023/10/27 04:57:57;;;;;;;5.28;1.73;;;8.00;94.50;;;;;;6166720;28;20077;-77
2023/10/27 05:00:59;;;;;;;7.43;1.70;;;8.00;94.60;;;;;;6142163;29;20194;-76
2023/10/27 05:04:01;;;;;;;10.02;1.75;;;8.00;94.60;;;;;;6145468;29;20059;-75
2023/10/27 05:07:05;;;;;;;8.00;2.17;;;7.90;94.50;;;;;;6153101;28;20055;-76
2023/10/27 05:10:07;;;;;;;5.65;1.90;;;7.90;94.50;;;;;;6170120;28;20055;-76
2023/10/27 05:13:09;;;;;;;6.25;1.80;;;7.80;94.50;;;;;;6149531;28;20047;-77
2023/10/27 05:16:11;;;;;;;7.22;1.80;;;7.80;94.30;;;;;;6170410;28;20055;-76
2023/10/27 05:19:13;;;;;;;8.90;2.10;;;7.70;94.50;;;;;;6146899;28;20059;-76
2023/10/27 05:22:15;;;;;;;10.57;2.20;;;7.80;94.40;;;;;;6169634;28;20054;-76
2023/10/27 05:25:16;;;;;;;5.63;1.60;;;7.80;94.50;;;;;;6145317;28;20459;-76
2023/10/27 05:28:18;;;;;;;13.25;1.98;;;7.90;94.60;;;;;;6160647;28;20811;-76
2023/10/27 05:31:20;;;;;;;8.25;1.83;;;7.90;94.60;;;;;;6146123;28;20091;-77
2023/10/27 05:34:22;;;;;;;5.82;2.03;;;7.90;94.70;;;;;;6169594;28;20062;-76
2023/10/27 05:37:23;;;;;;;10.18;2.00;;;7.90;94.60;;;;;;6146512;28;20055;-76
2023/10/27 05:40:31;;;;;;;7.15;1.88;;;8.00;94.70;;;;;;6169372;28;20137;-76
2023/10/27 05:43:33;;;;;;;6.80;2.00;;;8.00;94.80;;;;;;6150896;28;20061;-76
2023/10/27 05:46:35;;;;;;;12.15;2.20;;;8.10;94.80;;;;;;6146457;28;20134;-77
2023/10/27 05:49:36;;;;;;;6.88;1.95;;;8.10;94.80;;;;;;6169402;28;20051;-76
2023/10/27 05:52:38;;;;;;;7.65;2.25;;;8.10;94.80;;;;;;6146627;28;20059;-76
2023/10/27 05:55:39;;;;;;;10.18;2.33;;;8.10;94.80;;;;;;6169168;28;20055;-76
2023/10/27 05:58:41;;;;;;;10.27;2.10;;;8.10;94.80;;;;;;6152682;28;20058;-76
2023/10/27 06:01:43;;;;;;;8.55;2.00;;;8.10;94.80;;;;;;6150525;28;20059;-76
2023/10/27 06:04:44;;;;;;;6.70;2.03;;;8.10;94.80;;;;;;6173793;28;20494;-76
2023/10/27 06:07:46;;;;;;;7.15;2.20;;;8.10;94.80;;;;;;6149068;28;20118;-76
2023/10/27 06:10:47;;;;;;;7.60;2.10;;;8.20;94.90;;;;;;6173492;28;20058;-76
2023/10/27 06:13:49;;;;;;;10.00;2.25;;;8.20;94.90;;;;;;6159620;28;20054;-77
2023/10/27 06:16:50;;;;;;;6.93;1.90;;;8.30;94.90;;;;;;6150703;28;20055;-77
2023/10/27 06:19:52;;;;;;;8.95;2.45;;;8.30;94.90;;;;;;6173222;28;20051;-77
2023/10/27 06:23:10;;;;;;;8.90;2.33;;;8.30;94.90;;;;;;6150057;28;20051;-77
2023/10/27 06:26:14;;;;;;;9.48;2.50;;;8.20;94.80;;;;;;6173477;28;20497;-77
2023/10/27 06:29:15;;;;;;;8.10;2.35;;;8.20;94.80;;;;;;6160104;28;20427;-77
2023/10/27 06:32:17;;;;;;;5.22;1.60;;;8.20;94.80;;;;;;6150089;28;20373;-76
2023/10/27 06:35:19;;;;;;;7.68;1.90;;;8.20;94.80;;;;;;6171419;28;20058;-77
2023/10/27 06:38:21;;;;;;;6.82;2.30;;;8.20;94.80;;;;;;6154894;28;20055;-77
2023/10/27 06:41:22;;;;;;;12.00;2.35;;;8.20;94.80;;;;;;6172658;28;20058;-75
2023/10/27 06:44:24;;;;;;;10.25;2.13;;;8.10;94.70;;;;;;6156732;28;20062;-76
2023/10/27 06:47:25;;;;;;;10.70;2.67;;;8.10;94.60;;;;;;6149566;28;20065;-76
2023/10/27 06:50:27;;;;;;;7.25;2.30;;;8.10;94.70;;;;;;6172907;28;20065;-76
2023/10/27 06:53:29;;;;;;;10.18;2.45;;;8.10;94.70;;;;;;6149629;28;20051;-76
2023/10/27 06:56:30;;;;;;;9.27;3.47;;;8.10;94.80;;;;;;6172489;28;20054;-76
2023/10/27 06:59:32;;;;;;;6.88;2.70;;;8.20;94.80;;;;;;6160277;28;20050;-77
2023/10/27 07:02:34;;;;;;;8.75;2.95;;;8.20;94.80;;;;;;6149479;28;20062;-76
2023/10/27 07:05:55;;;;;;;7.32;2.72;;;8.20;94.80;;;;;;6147395;28;20131;-77
2023/10/27 07:08:57;;;;;;;9.15;2.50;;;8.30;94.80;;;;;;6162366;28;20523;-77
2023/10/27 07:12:00;;;;;;;10.77;2.72;;;8.30;94.90;;;;;;6171789;28;20134;-76
2023/10/27 07:15:01;;;;;;;8.07;2.40;;;8.40;94.90;;;;;;6146950;28;20066;-76
2023/10/27 07:18:03;;;;;;;7.78;2.22;;;8.40;94.90;;;;;;6171990;28;20141;-76
2023/10/27 07:21:04;;;;;;;8.95;2.45;;;8.50;94.90;;;;;;6148856;28;20522;-76
2023/10/27 07:24:06;;;;;;;10.27;2.42;;;8.50;94.90;;;;;;6170283;28;20533;-76
2023/10/27 07:27:08;;;;;;;9.63;2.53;;;8.60;94.90;;;;;;6148428;28;20047;-76
2023/10/27 07:30:09;;;;;;;7.80;2.65;;;8.70;95.00;;;;;;6168269;28;20074;-76
2023/10/27 07:33:11;;;;;;;13.27;2.67;;;8.70;95.00;;;;;;6148600;28;20055;-77
2023/10/27 07:36:13;;;;;;;10.60;2.45;;;8.80;95.00;;;;;;6171724;28;20058;-77
2023/10/27 07:39:15;;;;;;;9.15;2.70;;;8.90;95.00;;;;;;6148304;28;20638;-76
2023/10/27 07:42:16;;;;;;;8.80;2.75;;;8.90;95.00;;;;;;6171225;28;20403;-76
2023/10/27 07:45:18;;;;;;;7.18;2.38;;;9.00;95.10;;;;;;6159003;28;20069;-76
2023/10/27 07:48:19;;;;;;;10.45;3.08;;;9.20;95.20;;;;;;6148533;28;20050;-77
2023/10/27 07:51:22;;;;;;;9.48;2.42;;;9.30;95.20;;;;;;6171450;28;20069;-77
2023/10/27 07:54:23;;;;;;;10.93;3.67;;;9.40;95.30;;;;;;6124974;28;20052;-77
2023/10/27 07:57:25;;;;;;;8.25;3.00;;;9.50;95.40;;;;;;6171050;28;20675;-80
2023/10/27 08:00:26;;;;;;;12.23;4.05;;;9.70;95.50;;;;;;6153796;28;20112;-89
2023/10/27 08:03:29;;;;;;;14.57;3.78;;;9.80;95.50;;;;;;6149931;28;20067;-90
2023/10/27 08:06:31;;;;;;;12.73;3.92;;;9.90;95.60;;;;;;6171831;28;20055;-83
2023/10/27 08:09:32;;;;;;;13.10;4.07;;;10.00;95.30;;;;;;6148599;28;20059;-83
2023/10/27 08:12:34;;;;;;;13.32;4.18;;;10.20;95.40;;;;;;6146008;28;20607;-78
2023/10/27 08:15:37;;;;;;;15.40;4.22;;;10.30;95.40;;;;;;6144926;28;20065;-81
2023/10/27 08:18:38;;;;;;;14.35;5.05;;;10.50;95.50;;;;;;6172132;28;20064;-84
2023/10/27 08:21:40;;;;;;;12.02;4.18;;;10.70;95.60;;;;;;6142204;28;20523;-82
2023/10/27 08:24:42;;;;;;;14.68;4.40;;;10.90;95.70;;;;;;6147864;28;20051;-84
2023/10/27 08:27:45;;;;;;;14.00;4.60;;;10.90;95.70;;;;;;6125916;28;20574;-86
2023/10/27 08:30:46;;;;;;;14.10;4.50;;;11.10;95.80;;;;;;6160341;28;20385;-89
2023/10/27 08:33:48;;;;;;;10.50;3.85;;;11.20;95.80;;;;;;6124645;29;20048;-79
2023/10/27 08:36:49;;;;;;;13.80;5.68;;;11.30;95.80;;;;;;6169068;28;20051;-82
2023/10/27 08:39:51;;;;;;;12.10;4.57;;;11.30;95.70;;;;;;6147955;28;20051;-80
2023/10/27 08:42:53;;;;;;;10.98;3.30;;;11.40;95.60;;;;;;6148408;28;20064;-80
2023/10/27 08:45:54;;;;;;;7.60;2.92;;;11.30;95.60;;;;;;6153353;28;20059;-77
2023/10/27 08:48:56;;;;;;;7.18;2.15;;;11.40;95.50;;;;;;6169559;28;20173;-77
2023/10/27 08:51:58;;;;;;;5.97;1.70;;;11.40;95.40;;;;;;6146910;28;20047;-76
2023/10/27 08:54:59;;;;;;;6.38;1.95;;;11.40;95.10;;;;;;6170215;28;20051;-75
2023/10/27 08:58:01;;;;;;;5.40;1.55;;;11.40;95.10;;;;;;6146570;28;20046;-79
2023/10/27 09:01:03;;;;;;;7.28;1.70;;;11.50;94.80;;;;;;6169482;28;20058;-86
2023/10/27 09:04:04;;;;;;;7.50;2.72;;;11.50;94.90;;;;;;6145807;28;20054;-78
2023/10/27 09:07:06;;;;;;;4.72;1.70;;;11.50;95.00;;;;;;6157932;28;20054;-80
2023/10/27 09:10:08;;;;;;;4.68;1.58;;;11.60;94.90;;;;;;6146784;28;20146;-79
2023/10/27 09:13:10;;;;;;;6.93;1.50;;;11.60;95.20;;;;;;6147826;28;20050;-76
2023/10/27 09:16:11;;;;;;;4.13;1.20;;;11.70;95.30;;;;;;6169819;28;20054;-75
2023/10/27 09:19:13;;;;;;;2.95;1.23;;;11.80;95.30;;;;;;6146303;28;20062;-76
2023/10/27 09:22:15;;;;;;;5.75;1.52;;;11.80;95.20;;;;;;6169528;28;20074;-76
2023/10/27 09:25:17;;;;;;;5.28;1.70;;;11.80;95.20;;;;;;6146703;28;20499;-76
2023/10/27 09:28:19;;;;;;;4.03;1.58;;;11.70;95.00;;;;;;6160116;28;20055;-76
2023/10/27 09:31:20;;;;;;;4.80;1.65;;;11.70;95.40;;;;;;6146878;28;20419;-76
2023/10/27 09:34:23;;;;;;;6.60;1.83;;;11.70;95.00;;;;;;6174176;28;20055;-76
2023/10/27 09:37:27;;;;;;;9.73;1.80;;;11.60;94.80;;;;;;6150591;28;20059;-76
2023/10/27 09:40:28;;;;;;;10.65;3.90;;;11.70;94.70;;;;;;6174193;28;20077;-76
2023/10/27 09:43:30;;;;;;;5.00;1.70;;;11.70;94.80;;;;;;6154591;28;20050;-77
2023/10/27 09:46:32;;;;;;;9.55;1.88;;;11.80;94.70;;;;;;6173981;28;20059;-77
2023/10/27 09:49:33;;;;;;;4.45;1.70;;;11.90;94.90;;;;;;6148905;28;20051;-76
2023/10/27 09:52:37;;;;;;;7.07;1.95;;;12.00;94.90;;;;;;6171729;28;20054;-78
2023/10/27 09:55:39;;;;;;;6.40;1.83;;;12.20;94.80;;;;;;6150702;28;20807;-80
2023/10/27 09:58:40;;;;;;;4.10;1.50;;;12.20;94.70;;;;;;6163466;28;20491;-77
2023/10/27 10:01:42;;;;;;;5.22;1.52;;;12.30;94.40;;;;;;6172623;28;20169;-77
2023/10/27 10:04:44;;;;;;;6.50;1.38;;;12.30;93.90;;;;;;6150701;28;20159;-78
2023/10/27 10:07:52;;;;;;;6.20;1.40;;;12.40;93.60;;;;;;6149768;28;20201;-78
2023/10/27 10:10:54;;;;;;;3.53;1.55;;;12.30;91.90;;;;;;6174246;28;20054;-78
2023/10/27 10:13:55;;;;;;;3.70;1.38;;;12.30;91.80;;;;;;6158200;28;20054;-77
2023/10/27 10:16:57;;;;;;;5.82;1.20;;;12.30;92.20;;;;;;6150462;28;20431;-78
2023/10/27 10:19:59;;;;;;;4.82;1.10;;;12.40;92.30;;;;;;6173016;28;20062;-78
2023/10/27 10:23:00;;;;;;;3.33;1.13;;;12.60;91.50;;;;;;6150179;28;20066;-78
2023/10/27 10:26:02;;;;;;;3.17;0.95;;;12.70;90.90;;;;;;6171378;28;20047;-78
2023/10/27 10:29:03;;;;;;;3.88;1.15;;;13.00;87.80;;;;;;6161113;28;20059;-77
2023/10/27 10:32:05;;;;;;;2.15;0.70;;;13.30;88.50;;;;;;6173010;28;20058;-76
2023/10/27 10:35:06;;;;;;;2.38;0.75;;;13.40;78.60;;;;;;6149411;28;20361;-78
2023/10/27 10:38:08;;;;;;;4.00;1.00;;;13.60;80.50;;;;;;6171000;28;20437;-78
2023/10/27 10:41:10;;;;;;;3.53;0.85;;;13.90;77.30;;;;;;6149434;28;20055;-77
2023/10/27 10:44:12;;;;;;;2.70;0.90;;;14.20;67.10;;;;;;6157971;28;20518;-77
2023/10/27 10:47:13;;;;;;;3.88;1.10;;;14.50;74.80;;;;;;6173415;28;20784;-78
2023/10/27 10:50:15;;;;;;;3.30;0.80;;;14.40;66.00;;;;;;6149243;28;20055;-77
2023/10/27 10:53:17;;;;;;;2.45;0.65;;;14.30;73.70;;;;;;6172609;28;20430;-78
2023/10/27 10:56:18;;;;;;;2.85;0.80;;;14.40;77.70;;;;;;6149487;28;20059;-77
2023/10/27 10:59:20;;;;;;;1.90;0.60;;;14.40;67.90;;;;;;6154492;28;20058;-76
2023/10/27 11:02:22;;;;;;;1.80;0.80;;;14.50;65.30;;;;;;6172317;28;20510;-77
2023/10/27 11:05:23;;;;;;;2.63;0.80;;;14.60;65.30;;;;;;6149005;28;20073;-77
2023/10/27 11:08:25;;;;;;;2.50;0.90;;;14.80;60.50;;;;;;6171942;28;20046;-78
2023/10/27 11:11:28;;;;;;;4.38;0.80;;;15.70;46.60;;;;;;6147492;28;20585;-77
2023/10/27 11:14:48;;;;;;;3.22;0.88;;;16.90;37.20;;;;;;6164234;28;20141;-78
2023/10/27 11:17:52;;;;;;;3.03;0.90;;;18.10;42.70;;;;;;6148496;28;20055;-77
2023/10/27 11:20:54;;;;;;;2.22;0.90;;;18.90;2.50;;;;;;6172365;28;20078;-77
2023/10/27 11:23:55;;;;;;;2.65;0.90;;;19.40;1.00;;;;;;6148766;28;20058;-77
2023/10/27 11:26:57;;;;;;;3.42;0.80;;;19.60;1.00;;;;;;6157617;28;20055;-78
2023/10/27 11:29:59;;;;;;;2.60;0.90;;;19.80;1.00;;;;;;6170125;28;20427;-77
2023/10/27 11:33:00;;;;;;;2.45;1.08;;;19.50;1.00;;;;;;6152549;28;20051;-85
2023/10/27 11:36:02;;;;;;;3.35;0.95;;;19.40;1.00;;;;;;6172694;28;20502;-83
2023/10/27 11:39:04;;;;;;;1.75;0.90;;;19.50;1.00;;;;;;6151569;28;20063;-88
2023/10/27 11:42:05;;;;;;;2.55;0.70;;;19.70;1.00;;;;;;6178426;28;20058;-76
2023/10/27 11:45:07;;;;;;;2.53;0.80;;;20.30;1.00;;;;;;6157861;28;20059;-77
2023/10/27 11:48:09;;;;;;;3.22;0.90;;;21.00;1.00;;;;;;6148075;28;20058;-85
2023/10/27 11:51:13;;;;;;;2.58;0.77;;;21.20;1.00;;;;;;6172360;28;20537;-84
2023/10/27 11:54:18;;;;;;;3.63;0.77;;;21.30;1.00;;;;;;6147767;28;20059;-80
2023/10/27 11:57:19;;;;;;;1.70;0.70;;;20.70;1.00;;;;;;6172092;28;20065;-84
2023/10/27 12:00:21;;;;;;;1.48;0.70;;;20.50;1.00;;;;;;6143591;28;20066;-78
2023/10/27 12:03:23;;;;;;;2.85;0.80;;;20.70;1.00;;;;;;6171118;28;20689;-78
2023/10/27 12:06:25;;;;;;;1.95;0.70;;;21.00;1.00;;;;;;6147393;28;20055;-76
2023/10/27 12:09:27;;;;;;;1.98;0.70;;;20.90;1.00;;;;;;6170193;28;20061;-76
2023/10/27 12:12:29;;;;;;;2.03;0.60;;;20.90;1.00;;;;;;6147540;28;20062;-83
2023/10/27 12:15:31;;;;;;;2.40;0.80;;;20.40;1.00;;;;;;6167171;28;20058;-77
2023/10/27 12:18:32;;;;;;;2.00;0.70;;;20.10;1.00;;;;;;6148774;28;20047;-79
2023/10/27 12:21:34;;;;;;;2.17;0.70;;;20.10;1.00;;;;;;6170759;28;20061;-84
2023/10/27 12:24:36;;;;;;;1.45;0.70;;;19.70;1.00;;;;;;6147841;28;20051;-78
2023/10/27 12:27:38;;;;;;;2.67;0.80;;;20.00;1.00;;;;;;6152024;28;20062;-78
2023/10/27 12:30:39;;;;;;;3.08;0.77;;;20.20;1.00;;;;;;6171733;28;20055;-91
2023/10/27 12:33:41;;;;;;;2.00;0.80;;;20.00;1.00;;;;;;6130806;28;20058;-90
2023/10/27 12:36:43;;;;;;;4.18;0.90;;;19.50;1.00;;;;;;6161667;28;20102;-91
2023/10/27 12:39:45;;;;;;;2.67;0.75;;;19.20;1.00;;;;;;6182593;28;20055;-92
2023/10/27 12:42:47;;;;;;;2.53;0.82;;;19.30;1.00;;;;;;6191306;28;20055;-92
2023/10/27 12:45:48;;;;;;;2.13;0.70;;;19.70;1.00;;;;;;6160486;28;20062;-77
2023/10/27 12:48:51;;;;;;;3.15;0.85;;;19.40;1.00;;;;;;6153467;28;20055;-93
2023/10/27 12:51:56;;;;;;;2.75;0.70;;;18.50;1.00;;;;;;6172570;28;20077;-76
2023/10/27 12:54:57;;;;;;;3.42;0.85;;;17.90;1.00;;;;;;6146768;28;20051;-77
2023/10/27 12:58:00;;;;;;;5.65;0.90;;;17.30;1.00;;;;;;6166213;28;20909;-79
2023/10/27 13:01:02;;;;;;;3.60;0.70;;;16.90;1.00;;;;;;6146401;28;20427;-77
2023/10/27 13:04:04;;;;;;;3.45;0.77;;;16.70;1.00;;;;;;6121554;29;20500;-76
2023/10/27 13:07:05;;;;;;;4.55;1.00;;;16.40;1.00;;;;;;6168266;28;20078;-77
2023/10/27 13:10:07;;;;;;;4.70;0.95;;;16.10;1.00;;;;;;6150756;28;20054;-87
2023/10/27 13:13:09;;;;;;;2.70;0.70;;;15.80;1.00;;;;;;6150256;28;20050;-83
2023/10/27 13:16:12;;;;;;;4.82;0.98;;;15.60;1.00;;;;;;6170289;28;20097;-84
2023/10/27 13:19:14;;;;;;;3.85;0.95;;;15.40;1.00;;;;;;6146885;28;20162;-76
2023/10/27 13:22:15;;;;;;;6.65;1.20;;;15.40;1.00;;;;;;6169011;28;20051;-76
2023/10/27 13:25:17;;;;;;;5.45;1.20;;;15.40;2.90;;;;;;6146366;28;20070;-88
2023/10/27 13:28:19;;;;;;;6.93;1.20;;;15.30;1.40;;;;;;6148243;28;20631;-76
2023/10/27 13:31:21;;;;;;;5.25;0.98;;;15.30;1.00;;;;;;6170254;28;20050;-76
2023/10/27 13:34:23;;;;;;;6.07;1.30;;;15.20;5.00;;;;;;6145146;28;20067;-76
2023/10/27 13:37:27;;;;;;;7.72;1.33;;;15.10;12.40;;;;;;6168985;28;20588;-76
2023/10/27 13:40:29;;;;;;;6.90;1.30;;;15.00;12.00;;;;;;6146161;28;20206;-77
2023/10/27 13:43:31;;;;;;;7.75;1.38;;;14.90;18.30;;;;;;6158584;28;20387;-77
2023/10/27 13:46:33;;;;;;;5.18;1.13;;;14.70;20.50;;;;;;6167903;28;20157;-77
2023/10/27 13:49:35;;;;;;;2.85;1.00;;;14.50;19.80;;;;;;6146343;28;20059;-77
2023/10/27 13:52:36;;;;;;;5.63;0.90;;;14.50;26.90;;;;;;6169529;28;20087;-84
2023/10/27 13:55:38;;;;;;;3.63;0.88;;;14.70;39.90;;;;;;6145715;28;20423;-80
2023/10/27 13:58:40;;;;;;;4.55;0.90;;;14.70;26.30;;;;;;6152618;28;20058;-82
2023/10/27 14:01:42;;;;;;;5.28;0.88;;;14.50;31.20;;;;;;6146338;28;20510;-81
2023/10/27 14:04:43;;;;;;;2.50;1.00;;;14.20;40.20;;;;;;6146634;28;20082;-77
2023/10/27 14:07:46;;;;;;;5.03;1.05;;;14.20;36.80;;;;;;6122723;29;20497;-77
2023/10/27 14:10:47;;;;;;;4.50;1.38;;;14.40;34.90;;;;;;6121631;29;20056;-77
2023/10/27 14:13:49;;;;;;;4.55;1.50;;;15.60;21.60;;;;;;6150814;28;20055;-78
2023/10/27 14:16:51;;;;;;;3.33;1.05;;;16.50;4.50;;;;;;6145640;28;20051;-77
2023/10/27 14:19:53;;;;;;;3.60;1.00;;;17.00;1.00;;;;;;6173144;28;20151;-77
2023/10/27 14:22:54;;;;;;;3.25;0.90;;;17.30;1.00;;;;;;6148924;28;20058;-80
2023/10/27 14:25:56;;;;;;;3.33;0.90;;;17.30;1.00;;;;;;6171725;28;20138;-79
2023/10/27 14:29:02;;;;;;;4.25;1.00;;;17.50;1.00;;;;;;6160662;28;20503;-77
2023/10/27 14:32:04;;;;;;;3.42;0.80;;;17.30;1.00;;;;;;6149205;28;20134;-79
2023/10/27 14:35:06;;;;;;;3.67;0.82;;;17.40;1.00;;;;;;6174414;28;20078;-86
2023/10/27 14:38:12;;;;;;;3.47;0.90;;;17.30;1.00;;;;;;6145637;28;20051;-77
2023/10/27 14:41:14;;;;;;;3.35;0.93;;;17.10;1.00;;;;;;6148698;28;20569;-77
2023/10/27 14:44:16;;;;;;;1.67;0.60;;;16.30;1.00;;;;;;6159545;28;20160;-77
2023/10/27 14:47:19;;;;;;;3.30;0.70;;;15.70;1.00;;;;;;6171373;28;20050;-77
2023/10/27 14:50:36;;;;;;;3.75;0.70;;;15.30;1.00;;;;;;6148977;28;20071;-77
2023/10/27 14:53:37;;;;;;;3.83;0.82;;;14.90;1.00;;;;;;6148911;29;20061;-77
2023/10/27 14:56:39;;;;;;;3.17;0.80;;;14.70;1.00;;;;;;6172920;28;20066;-77
2023/10/27 14:59:41;;;;;;;4.10;0.88;;;14.60;1.00;;;;;;6148879;28;20536;-77
2023/10/27 15:02:45;;;;;;;4.82;0.90;;;14.40;9.60;;;;;;6172760;28;20145;-78
2023/10/27 15:05:54;;;;;;;5.97;1.20;;;14.30;16.30;;;;;;6146561;29;20482;-76
2023/10/27 15:08:55;;;;;;;4.47;1.15;;;14.10;19.00;;;;;;6172084;28;20514;-75
2023/10/27 15:11:57;;;;;;;3.88;1.10;;;14.00;25.60;;;;;;6148970;28;20055;-76
2023/10/27 15:14:59;;;;;;;4.22;1.25;;;13.90;29.40;;;;;;6170455;28;20055;-77
2023/10/27 15:18:00;;;;;;;4.72;1.63;;;13.80;29.30;;;;;;6148759;28;20062;-76
2023/10/27 15:21:02;;;;;;;6.53;1.73;;;13.80;34.10;;;;;;6171726;28;20137;-77
2023/10/27 15:24:04;;;;;;;5.88;1.80;;;13.70;33.60;;;;;;6148426;28;20062;-77
2023/10/27 15:27:06;;;;;;;5.82;1.30;;;13.60;32.70;;;;;;6171753;28;20065;-77
2023/10/27 15:30:07;;;;;;;5.20;1.40;;;13.50;30.20;;;;;;6147553;28;20062;-77
2023/10/27 15:33:09;;;;;;;4.93;1.27;;;13.40;29.40;;;;;;6173517;28;20047;-77
2023/10/27 15:36:11;;;;;;;5.85;0.95;;;13.40;31.00;;;;;;6148850;28;20051;-77
2023/10/27 15:39:16;;;;;;;5.00;1.42;;;13.30;24.10;;;;;;6171769;28;20059;-77
2023/10/27 15:42:18;;;;;;;4.30;0.90;;;13.20;28.80;;;;;;6148395;28;20051;-76
2023/10/27 15:45:19;;;;;;;3.15;1.02;;;13.10;26.50;;;;;;6161061;28;20055;-77
2023/10/27 15:48:22;;;;;;;4.80;1.05;;;13.10;24.10;;;;;;6148786;28;20074;-78
2023/10/27 15:51:24;;;;;;;5.88;1.30;;;13.00;25.30;;;;;;6170979;28;20073;-78
2023/10/27 15:54:26;;;;;;;3.53;0.85;;;12.90;26.00;;;;;;6148412;28;20062;-79